Sunday, April 22, 2018, 9:34 PM EDT
Back to Local

KDDH, Bennington Morse State Airport

Location: Bennington, VT, United States Lat: 42.883
Local Time: 9:34 PM EDT ( 1:34 GMT) Lon: -73.25
Time Zone: US/Eastern Elev: 826 ft

Show me the last for .
Show Decoded

2018-04-22 20:54 METAR KDDH 230054Z AUTO 17003KT 10SM CLR 05/M07 A3035 RMK AO2 SLP282 T00501072 =
2018-04-22 19:54 METAR KDDH 222354Z AUTO 00000KT 10SM CLR 10/M13 A3032 RMK AO2 SLP273 T01001128
                 10156 20100 53004 =
2018-04-22 18:54 METAR KDDH 222254Z AUTO VRB06KT 10SM CLR 14/M13 A3031 RMK AO2 SLP271 T01391128 =
2018-04-22 17:54 METAR KDDH 222154Z AUTO 33006KT 10SM CLR 14/M13 A3031 RMK AO2 SLP267 T01441128 =
2018-04-22 16:54 METAR KDDH 222054Z AUTO 33009KT 10SM CLR 16/M10 A3031 RMK AO2 SLP268 T01561100
                 56013 =
2018-04-22 15:54 METAR KDDH 221954Z AUTO 28007KT 10SM CLR 14/M11 A3031 RMK AO2 SLP270 T01441106 =
2018-04-22 14:54 METAR KDDH 221854Z AUTO 35007G15KT 10SM CLR 14/M08 A3033 RMK AO2 SLP275
                 T01441083 =
2018-04-22 13:54 METAR KDDH 221754Z AUTO 33008KT 10SM CLR 13/M09 A3035 RMK AO2 SLP281 T01331089
                 10133 20028 58014 =
2018-04-22 12:54 METAR KDDH 221654Z AUTO 28009KT 10SM CLR 13/M09 A3037 RMK AO2 SLP288 T01281089 =
2018-04-22 11:54 METAR KDDH 221554Z AUTO 29009KT 10SM CLR 11/M08 A3038 RMK AO2 SLP292 T01111083 =
2018-04-22 10:54 METAR KDDH 221454Z AUTO 34009KT 10SM CLR 10/M08 A3039 RMK AO2 SLP295 T01001078
                 50002 =
2018-04-22 09:54 METAR KDDH 221354Z AUTO 04003KT 10SM CLR 08/M06 A3039 RMK AO2 SLP296 T00831056 =
2018-04-22 08:54 METAR KDDH 221254Z AUTO 35003KT 10SM CLR 07/M04 A3038 RMK AO2 SLP293 T00671039 =
2018-04-22 07:54 METAR KDDH 221154Z AUTO 00000KT 10SM CLR 03/M03 A3038 RMK AO2 SLP293 T00281033
                 10028 21039 51012 =
2018-04-22 06:54 METAR KDDH 221054Z AUTO 00000KT 10SM CLR M03/M06 A3037 RMK AO2 SLP290 T10281056
                 =
2018-04-22 05:54 METAR KDDH 220954Z AUTO 00000KT 10SM CLR M03/M07 A3036 RMK AO2 SLP287 T10281067
                 =
2018-04-22 04:54 METAR KDDH 220854Z AUTO 00000KT 10SM CLR M02/M06 A3035 RMK AO2 SLP281 T10221061
                 53003 =
2018-04-22 03:54 METAR KDDH 220754Z AUTO 00000KT 10SM CLR M02/M06 A3034 RMK AO2 SLP280 T10221061
                 =
2018-04-22 02:54 METAR KDDH 220654Z AUTO 15004KT 10SM CLR M02/M07 A3034 RMK AO2 SLP279 T10171067
                 =
2018-04-22 01:54 METAR KDDH 220554Z AUTO 20005KT 10SM CLR 00/M07 A3034 RMK AO2 SLP278 T00001067
                 10100 21006 51007 =
2018-04-22 00:54 METAR KDDH 220454Z AUTO 19004KT 10SM CLR 02/M08 A3034 RMK AO2 SLP278 T00221078
                 401391044 =
2018-04-21 23:54 METAR KDDH 220354Z AUTO 18004KT 10SM CLR 04/M08 A3033 RMK AO2 SLP274 T00391078 =
2018-04-21 22:54 METAR KDDH 220254Z AUTO 00000KT 10SM CLR 03/M08 A3032 RMK AO2 SLP271 T00331083
                 51015 =
2018-04-21 21:54 METAR KDDH 220154Z AUTO 27003KT 10SM CLR 06/M09 A3031 RMK AO2 SLP268 T00561089 =

Support USWX by starting your Amazon purchase here.